createdAt,value
2022-12-11T15:53:10.683Z,17.65
2022-12-11T15:55:39.177Z,18.25
2022-12-11T15:58:09.775Z,19.90
2022-12-11T16:00:37.532Z,18.23
2022-12-11T16:03:05.685Z,16.15
2022-12-11T16:05:33.378Z,17.58
2022-12-11T16:08:01.096Z,19.27
2022-12-11T16:10:30.526Z,17.50
2022-12-11T16:12:59.600Z,18.85
2022-12-11T16:15:28.101Z,16.45
2022-12-11T16:18:03.942Z,17.83
2022-12-11T16:20:32.641Z,17.63
2022-12-11T16:23:00.737Z,19.63
2022-12-11T16:25:31.615Z,17.33
2022-12-11T16:28:00.848Z,20.15
2022-12-11T16:30:29.837Z,23.15
2022-12-11T16:32:57.783Z,23.27
2022-12-11T16:35:25.598Z,22.27
2022-12-11T16:37:54.740Z,20.65
2022-12-11T16:40:23.389Z,19.52
2022-12-11T16:42:52.634Z,21.15
2022-12-11T16:45:22.302Z,21.30
2022-12-11T16:47:50.481Z,22.15
2022-12-11T16:50:18.510Z,23.17
2022-12-11T16:52:47.062Z,21.88
2022-12-11T16:55:15.601Z,24.83
2022-12-11T16:57:43.450Z,28.42
2022-12-11T17:00:14.652Z,25.05
2022-12-11T17:02:42.785Z,20.98
2022-12-11T17:05:10.992Z,21.27
2022-12-11T17:07:39.188Z,19.08
2022-12-11T17:10:08.082Z,23.83
2022-12-11T17:12:35.902Z,23.58
2022-12-11T17:15:03.821Z,19.40
2022-12-11T17:17:33.242Z,20.13
2022-12-11T17:20:00.990Z,20.98
2022-12-11T17:22:28.833Z,20.45
2022-12-11T17:24:57.611Z,19.65
2022-12-11T17:27:25.401Z,19.65
2022-12-11T17:29:53.490Z,18.00
2022-12-11T17:32:21.323Z,18.00
2022-12-11T17:34:50.723Z,18.77
2022-12-11T17:37:19.232Z,17.73
2022-12-11T17:39:47.511Z,19.33
2022-12-11T17:42:15.598Z,19.42
2022-12-11T17:44:45.533Z,19.65
2022-12-11T17:47:13.263Z,18.67
2022-12-11T17:49:41.380Z,20.67
2022-12-11T17:52:10.489Z,18.70
2022-12-11T17:54:39.195Z,18.90
2022-12-11T17:57:07.387Z,19.05
2022-12-11T17:59:35.336Z,18.90
2022-12-11T18:02:03.209Z,20.42
2022-12-11T18:04:31.195Z,18.40
2022-12-11T18:06:59.102Z,16.48
2022-12-11T18:09:28.195Z,17.13
2022-12-11T18:11:55.980Z,17.60
2022-12-11T18:14:23.721Z,17.98
2022-12-11T18:16:52.434Z,19.17
2022-12-11T18:19:22.102Z,17.42
2022-12-11T18:21:50.491Z,18.95
2022-12-11T18:24:18.245Z,18.60
2022-12-11T18:26:47.848Z,17.17
2022-12-11T18:29:16.166Z,17.67
2022-12-11T18:31:43.964Z,16.77
2022-12-11T18:34:12.194Z,17.10
2022-12-11T18:36:41.562Z,15.93
2022-12-11T18:39:09.665Z,15.95
2022-12-11T18:41:37.480Z,18.38
2022-12-11T18:44:09.888Z,15.13
2022-12-11T18:46:39.542Z,16.58
2022-12-11T18:49:07.649Z,16.83
2022-12-11T18:51:35.968Z,16.88
2022-12-11T18:54:03.904Z,16.90
2022-12-11T18:56:31.854Z,16.73
2022-12-11T18:58:59.612Z,17.20
2022-12-11T19:01:30.004Z,16.00
2022-12-11T19:04:03.613Z,15.75
2022-12-11T19:06:35.384Z,16.92
2022-12-11T19:09:04.802Z,17.40
2022-12-11T19:11:34.368Z,17.85
2022-12-11T19:14:02.159Z,17.45
2022-12-11T19:16:34.390Z,15.65
2022-12-11T19:19:05.359Z,16.92
2022-12-11T19:21:34.257Z,17.50
2022-12-11T19:24:02.536Z,18.70
2022-12-11T19:26:30.649Z,17.98
2022-12-11T19:29:00.015Z,18.17
2022-12-11T19:31:30.393Z,17.67
2022-12-11T19:33:59.923Z,16.40
2022-12-11T19:36:29.627Z,17.90
2022-12-11T19:39:01.959Z,18.65
2022-12-11T19:41:31.925Z,18.27
2022-12-11T19:44:00.740Z,17.88
2022-12-11T19:46:29.776Z,17.88
2022-12-11T19:49:00.187Z,16.88
2022-12-11T19:51:31.234Z,16.88
2022-12-11T19:54:00.747Z,18.73
2022-12-11T19:56:28.570Z,17.45
2022-12-11T19:58:56.533Z,17.23
2022-12-11T20:01:28.802Z,17.95
2022-12-11T20:03:59.427Z,18.70
2022-12-11T20:06:30.146Z,21.73
2022-12-11T20:08:58.736Z,21.65
2022-12-11T20:11:26.753Z,19.65
2022-12-11T20:13:55.522Z,20.55
2022-12-11T20:16:39.535Z,17.65
2022-12-11T20:19:11.867Z,19.73
2022-12-11T20:21:42.230Z,19.02
2022-12-11T20:24:10.827Z,20.30
2022-12-11T20:26:38.645Z,20.33
2022-12-11T20:29:08.239Z,19.85
2022-12-11T20:31:37.357Z,19.63
2022-12-11T20:34:08.086Z,20.83
2022-12-11T20:36:36.158Z,23.27
2022-12-11T20:39:07.464Z,20.15
2022-12-11T20:41:36.416Z,21.08
2022-12-11T20:44:04.403Z,20.23
2022-12-11T20:46:32.169Z,19.98
2022-12-11T20:49:00.165Z,18.55
2022-12-11T20:51:29.118Z,17.20
2022-12-11T20:54:00.194Z,17.33
2022-12-11T20:56:31.445Z,16.88
2022-12-11T20:59:00.723Z,18.65
2022-12-11T21:01:31.812Z,19.23
2022-12-11T21:04:00.477Z,18.58
